Time;durP1;ratioP1;P1;durP2;ratioP2;P2;SDS_P1;SDS_P2;PMS_P1;PMS_P2;Temp;Humidity;BMP_temperature;BMP_pressure;BME280_temperature;BME280_humidity;BME280_pressure;Samples;Min_cycle;Max_cycle;Signal;HPM_P1;HPM_P2
2022/01/16 00:00:05;;;;;;;;;;;3.70;99.90;;;;;;5071322;28;19965;-77
2022/01/16 00:05:14;;;;;;;;;;;3.60;99.90;;;;;;5070741;28;20396;-77
2022/01/16 00:07:40;;;;;;;;;;;3.60;99.90;;;;;;5070861;28;19924;-78
2022/01/16 00:10:06;;;;;;;;;;;3.60;99.90;;;;;;5070957;28;19924;-77
2022/01/16 00:12:32;;;;;;;;;;;3.60;99.90;;;;;;5070600;28;19943;-77
2022/01/16 00:14:57;;;;;;;;;;;3.50;99.90;;;;;;5070916;28;19920;-77
2022/01/16 00:17:24;;;;;;;;;;;3.50;99.90;;;;;;5071062;28;19925;-77
2022/01/16 00:19:50;;;;;;;;;;;3.50;99.90;;;;;;5070835;28;19920;-78
2022/01/16 00:22:16;;;;;;;;;;;3.50;99.90;;;;;;5054187;28;20367;-77
2022/01/16 00:24:41;;;;;;;;;;;3.40;99.90;;;;;;5070397;28;19982;-77
2022/01/16 00:27:07;;;;;;;;;;;3.40;99.90;;;;;;5070404;28;19924;-77
2022/01/16 00:29:33;;;;;;;;;;;3.40;99.90;;;;;;5070526;28;19962;-77
2022/01/16 00:31:59;;;;;;;;;;;3.30;99.90;;;;;;5070570;28;19920;-78
2022/01/16 00:34:24;;;;;;;;;;;3.30;99.90;;;;;;5070314;28;19963;-77
2022/01/16 00:36:49;;;;;;;;;;;3.30;99.90;;;;;;5070387;28;19924;-78
2022/01/16 00:39:15;;;;;;;;;;;3.30;99.90;;;;;;5070114;28;20440;-77
2022/01/16 00:41:42;;;;;;;;;;;3.30;99.90;;;;;;5070490;28;20018;-77
2022/01/16 00:44:08;;;;;;;;;;;3.30;99.90;;;;;;5053147;28;19931;-78
2022/01/16 00:46:33;;;;;;;;;;;3.20;99.90;;;;;;5070190;28;19920;-77
2022/01/16 00:48:59;;;;;;;;;;;3.20;99.90;;;;;;5069886;28;19920;-77
2022/01/16 00:51:25;;;;;;;;;;;3.10;99.90;;;;;;5070253;28;20007;-77
2022/01/16 00:53:50;;;;;;;;;;;3.10;99.90;;;;;;5070162;28;20676;-78
2022/01/16 00:56:16;;;;;;;;;;;3.00;99.90;;;;;;5070266;28;19920;-77
2022/01/16 00:58:42;;;;;;;;;;;3.00;99.90;;;;;;5069687;28;20359;-78
2022/01/16 01:01:08;;;;;;;;;;;2.90;99.90;;;;;;5070070;28;20479;-77
2022/01/16 01:03:33;;;;;;;;;;;2.90;99.90;;;;;;5069845;28;20020;-77
2022/01/16 01:05:59;;;;;;;;;;;2.80;99.90;;;;;;5069729;28;19979;-78
2022/01/16 01:08:27;;;;;;;;;;;2.80;99.90;;;;;;5069104;28;19946;-77
2022/01/16 01:10:54;;;;;;;;;;;2.80;99.90;;;;;;5068946;28;19927;-78
2022/01/16 01:15:52;;;;;;;;;;;2.70;99.90;;;;;;5069645;28;19921;-77
2022/01/16 01:18:19;;;;;;;;;;;2.70;99.90;;;;;;5053116;28;20013;-77
2022/01/16 01:20:46;;;;;;;;;;;2.70;99.90;;;;;;5052637;28;19921;-78
2022/01/16 01:23:12;;;;;;;;;;;2.70;99.90;;;;;;5069366;28;19927;-77
2022/01/16 01:25:38;;;;;;;;;;;2.70;99.90;;;;;;5069281;28;19920;-77
2022/01/16 01:28:05;;;;;;;;;;;2.60;99.90;;;;;;5052985;28;19943;-77
2022/01/16 01:30:30;;;;;;;;;;;2.60;99.90;;;;;;5069131;28;19926;-78
2022/01/16 01:32:58;;;;;;;;;;;2.60;99.90;;;;;;5069687;28;19920;-78
2022/01/16 01:35:23;;;;;;;;;;;2.50;99.90;;;;;;5051805;28;19969;-77
2022/01/16 01:37:49;;;;;;;;;;;2.50;99.90;;;;;;5067965;28;19924;-77
2022/01/16 01:40:17;;;;;;;;;;;2.50;99.90;;;;;;5068466;28;20287;-78
2022/01/16 01:51:01;;;;;;;;;;;2.50;99.90;;;;;;5068594;28;20290;-78
2022/01/16 01:51:16;;;;;;;;;;;2.50;99.90;;;;;;5069321;28;19963;-77
2022/01/16 01:53:42;;;;;;;;;;;2.50;99.90;;;;;;5069124;28;20037;-78
2022/01/16 01:56:09;;;;;;;;;;;2.50;99.90;;;;;;5052567;28;19925;-77
2022/01/16 01:58:36;;;;;;;;;;;2.50;99.90;;;;;;5069024;28;20631;-78
2022/01/16 02:01:02;;;;;;;;;;;2.50;99.90;;;;;;5051861;28;19925;-78
2022/01/16 02:06:06;;;;;;;;;;;2.40;99.90;;;;;;5068904;28;19968;-78
2022/01/16 02:08:34;;;;;;;;;;;2.40;99.90;;;;;;5068930;28;20024;-78
2022/01/16 02:11:02;;;;;;;;;;;2.40;99.90;;;;;;5069131;28;19927;-78
2022/01/16 02:13:31;;;;;;;;;;;2.40;99.90;;;;;;5068917;28;19920;-77
2022/01/16 02:31:59;;;;;;;;;;;2.30;99.90;;;;;;5068365;28;20294;-78
2022/01/16 02:34:41;;;;;;;;;;;2.40;99.90;;;;;;5068846;28;19921;-78
2022/01/16 02:37:10;;;;;;;;;;;2.30;99.90;;;;;;5069025;28;20732;-78
2022/01/16 02:39:37;;;;;;;;;;;2.40;99.90;;;;;;5060997;28;19932;-78
2022/01/16 02:42:03;;;;;;;;;;;2.40;99.90;;;;;;5068654;28;19942;-78
2022/01/16 02:44:34;;;;;;;;;;;2.40;99.90;;;;;;5056393;28;20500;-78
2022/01/16 02:47:00;;;;;;;;;;;2.40;99.90;;;;;;5051406;28;19920;-78
2022/01/16 02:49:27;;;;;;;;;;;2.40;99.90;;;;;;5068456;28;19990;-79
2022/01/16 02:52:02;;;;;;;;;;;2.40;99.90;;;;;;5052260;28;19928;-78
2022/01/16 02:54:28;;;;;;;;;;;2.40;99.90;;;;;;5051497;28;19967;-78
2022/01/16 02:56:54;;;;;;;;;;;2.40;99.90;;;;;;5052863;28;19970;-78
2022/01/16 02:59:21;;;;;;;;;;;2.40;99.90;;;;;;5051660;28;19920;-77
2022/01/16 03:01:48;;;;;;;;;;;2.40;99.90;;;;;;5068079;28;19920;-77
2022/01/16 03:04:13;;;;;;;;;;;2.40;99.90;;;;;;5068276;28;19920;-77
2022/01/16 03:06:39;;;;;;;;;;;2.40;99.90;;;;;;5068124;28;20390;-78
2022/01/16 03:09:07;;;;;;;;;;;2.40;99.90;;;;;;5051021;28;20374;-78
2022/01/16 03:11:38;;;;;;;;;;;2.30;99.90;;;;;;5068198;28;20007;-77
2022/01/16 03:14:05;;;;;;;;;;;2.30;99.90;;;;;;5068316;28;19928;-78
2022/01/16 03:16:31;;;;;;;;;;;2.30;99.90;;;;;;5068000;28;19925;-77
2022/01/16 03:21:57;;;;;;;;;;;2.30;99.90;;;;;;5067812;28;19924;-78
2022/01/16 03:24:32;;;;;;;;;;;2.30;99.90;;;;;;5067425;28;20386;-78
2022/01/16 03:26:59;;;;;;;;;;;2.30;99.90;;;;;;5067663;28;19924;-78
2022/01/16 03:29:26;;;;;;;;;;;2.30;99.90;;;;;;5067757;28;19920;-78
2022/01/16 03:31:52;;;;;;;;;;;2.30;99.90;;;;;;5067603;28;19920;-78
2022/01/16 03:34:17;;;;;;;;;;;2.30;99.90;;;;;;5071325;28;20023;-77
2022/01/16 03:36:43;;;;;;;;;;;2.30;99.90;;;;;;5072512;28;19924;-77
2022/01/16 03:39:09;;;;;;;;;;;2.40;99.90;;;;;;5071848;28;19967;-78
2022/01/16 03:41:35;;;;;;;;;;;2.30;99.90;;;;;;5072697;28;19920;-78
2022/01/16 03:44:03;;;;;;;;;;;2.30;99.90;;;;;;5054734;28;19920;-77
2022/01/16 03:46:35;;;;;;;;;;;2.30;99.90;;;;;;5072044;28;19920;-77
2022/01/16 03:49:03;;;;;;;;;;;2.30;99.90;;;;;;5071282;28;20344;-78
2022/01/16 03:51:28;;;;;;;;;;;2.30;99.90;;;;;;5071403;28;19920;-78
2022/01/16 03:53:54;;;;;;;;;;;2.30;99.90;;;;;;5071169;28;19920;-77
2022/01/16 03:56:19;;;;;;;;;;;2.30;99.90;;;;;;5071000;28;20132;-78
2022/01/16 03:58:45;;;;;;;;;;;2.30;99.90;;;;;;5054264;28;19924;-77
2022/01/16 04:01:10;;;;;;;;;;;2.40;99.90;;;;;;5071427;28;19924;-78
2022/01/16 04:03:36;;;;;;;;;;;2.40;99.90;;;;;;5070927;28;20390;-78
2022/01/16 04:06:02;;;;;;;;;;;2.40;99.90;;;;;;5070877;28;19920;-78
2022/01/16 04:08:27;;;;;;;;;;;2.40;99.90;;;;;;5070786;28;19924;-78
2022/01/16 04:10:53;;;;;;;;;;;2.40;99.90;;;;;;5070856;28;19927;-78
2022/01/16 04:13:20;;;;;;;;;;;2.40;99.90;;;;;;5070627;28;19921;-78
2022/01/16 04:15:45;;;;;;;;;;;2.40;99.90;;;;;;5070857;28;19920;-77
2022/01/16 04:18:11;;;;;;;;;;;2.40;99.90;;;;;;5070418;28;19928;-78
2022/01/16 04:20:36;;;;;;;;;;;2.40;99.90;;;;;;5054142;28;20026;-78
2022/01/16 04:23:03;;;;;;;;;;;2.40;99.90;;;;;;5070852;28;20286;-78
2022/01/16 04:25:28;;;;;;;;;;;2.50;99.90;;;;;;5070646;28;20294;-77
2022/01/16 04:27:54;;;;;;;;;;;2.50;99.90;;;;;;5070657;28;19920;-78
2022/01/16 04:30:20;;;;;;;;;;;2.50;99.90;;;;;;5053987;28;20378;-78
2022/01/16 04:32:45;;;;;;;;;;;2.50;99.90;;;;;;5053666;28;19950;-78
2022/01/16 04:35:11;;;;;;;;;;;2.50;99.90;;;;;;5070511;28;19968;-77
2022/01/16 04:37:37;;;;;;;;;;;2.50;99.90;;;;;;5071727;28;19920;-77
2022/01/16 04:40:04;;;;;;;;;;;2.50;99.90;;;;;;5053648;28;19921;-78
2022/01/16 04:45:14;;;;;;;;;;;2.60;99.90;;;;;;5070473;28;19970;-78
2022/01/16 04:47:40;;;;;;;;;;;2.60;99.90;;;;;;5053555;28;19956;-78
2022/01/16 04:50:06;;;;;;;;;;;2.60;99.90;;;;;;5069861;28;19924;-78
2022/01/16 04:52:31;;;;;;;;;;;2.60;99.90;;;;;;5069752;28;19926;-78
2022/01/16 04:54:57;;;;;;;;;;;2.60;99.90;;;;;;5070230;28;19920;-77
2022/01/16 04:57:22;;;;;;;;;;;2.60;99.90;;;;;;5070273;28;20421;-78
2022/01/16 04:59:48;;;;;;;;;;;2.60;99.90;;;;;;5070006;28;19964;-78
2022/01/16 05:02:14;;;;;;;;;;;2.70;99.90;;;;;;5069708;28;19920;-77
2022/01/16 05:04:39;;;;;;;;;;;2.70;99.90;;;;;;5069912;28;19924;-78
2022/01/16 05:07:05;;;;;;;;;;;2.70;99.90;;;;;;5069736;28;20031;-78
2022/01/16 05:09:30;;;;;;;;;;;2.70;99.90;;;;;;5069323;28;19924;-77
2022/01/16 05:11:58;;;;;;;;;;;2.70;99.90;;;;;;5053470;28;19927;-78
2022/01/16 05:17:08;;;;;;;;;;;2.80;99.90;;;;;;5069838;28;20003;-78
2022/01/16 05:19:33;;;;;;;;;;;2.80;99.90;;;;;;5069314;28;19963;-78
2022/01/16 05:21:58;;;;;;;;;;;2.80;99.90;;;;;;5052933;28;20294;-77
2022/01/16 05:24:30;;;;;;;;;;;2.90;99.90;;;;;;5069246;28;20003;-78
2022/01/16 05:26:56;;;;;;;;;;;2.80;99.90;;;;;;5052829;28;19929;-78
2022/01/16 05:29:21;;;;;;;;;;;2.90;99.90;;;;;;5068784;28;19921;-78
2022/01/16 05:31:47;;;;;;;;;;;2.90;99.90;;;;;;5069748;28;19921;-78
2022/01/16 05:34:19;;;;;;;;;;;2.90;99.90;;;;;;5069264;28;19921;-78
2022/01/16 05:36:45;;;;;;;;;;;2.90;99.90;;;;;;5069188;28;20359;-78
2022/01/16 05:39:11;;;;;;;;;;;2.90;99.90;;;;;;5069312;28;20010;-78
2022/01/16 05:41:36;;;;;;;;;;;2.90;99.90;;;;;;5069064;28;19963;-78
2022/01/16 05:44:02;;;;;;;;;;;2.90;99.90;;;;;;5068674;28;19971;-78
2022/01/16 05:46:27;;;;;;;;;;;2.90;99.90;;;;;;5068940;28;19964;-78
2022/01/16 05:48:53;;;;;;;;;;;2.90;99.90;;;;;;5052289;28;20267;-78
2022/01/16 05:51:18;;;;;;;;;;;3.00;99.90;;;;;;5068739;28;19920;-78
2022/01/16 05:53:44;;;;;;;;;;;3.00;99.90;;;;;;5067736;28;20649;-78
2022/01/16 05:56:10;;;;;;;;;;;3.00;99.90;;;;;;5051028;28;19920;-77
2022/01/16 05:58:36;;;;;;;;;;;3.10;99.90;;;;;;5068052;28;20252;-78
2022/01/16 06:01:01;;;;;;;;;;;3.10;99.90;;;;;;5069133;28;19921;-78
2022/01/16 06:03:27;;;;;;;;;;;3.10;99.90;;;;;;5051889;28;19947;-78
2022/01/16 06:05:53;;;;;;;;;;;3.10;99.90;;;;;;5068503;28;19927;-78
2022/01/16 06:08:18;;;;;;;;;;;3.10;99.90;;;;;;5052492;28;20088;-78
2022/01/16 06:10:44;;;;;;;;;;;3.10;99.90;;;;;;5068661;28;19980;-78
2022/01/16 06:13:09;;;;;;;;;;;3.10;99.90;;;;;;5068740;28;19971;-78
2022/01/16 06:15:35;;;;;;;;;;;3.20;99.90;;;;;;5068508;28;19927;-78
2022/01/16 06:18:01;;;;;;;;;;;3.20;99.90;;;;;;5068669;28;19920;-78
2022/01/16 06:20:27;;;;;;;;;;;3.20;99.90;;;;;;5051809;28;20024;-77
2022/01/16 06:22:55;;;;;;;;;;;3.20;99.90;;;;;;5068686;28;20009;-77
2022/01/16 06:25:22;;;;;;;;;;;3.20;99.90;;;;;;5068280;28;19947;-78
2022/01/16 06:27:48;;;;;;;;;;;3.30;99.90;;;;;;5051751;28;19920;-78
2022/01/16 06:30:13;;;;;;;;;;;3.20;99.90;;;;;;5068519;28;19931;-78
2022/01/16 06:32:39;;;;;;;;;;;3.30;99.90;;;;;;5068639;28;20341;-78
2022/01/16 06:35:05;;;;;;;;;;;3.30;99.90;;;;;;5068679;28;19921;-78
2022/01/16 06:37:31;;;;;;;;;;;3.30;99.90;;;;;;5051444;28;19920;-78
2022/01/16 06:39:56;;;;;;;;;;;3.30;99.90;;;;;;5068734;28;20287;-78
2022/01/16 06:42:22;;;;;;;;;;;3.30;99.90;;;;;;5067705;28;19928;-78
2022/01/16 06:44:47;;;;;;;;;;;3.30;99.90;;;;;;5066963;28;19928;-78
2022/01/16 06:47:13;;;;;;;;;;;3.30;99.90;;;;;;5067636;28;20011;-78
2022/01/16 06:49:38;;;;;;;;;;;3.30;99.90;;;;;;5050553;28;20287;-78
2022/01/16 06:52:04;;;;;;;;;;;3.40;99.90;;;;;;5067478;28;19966;-78
2022/01/16 06:54:30;;;;;;;;;;;3.40;99.90;;;;;;5067011;28;19924;-78
2022/01/16 06:56:55;;;;;;;;;;;3.40;99.90;;;;;;5067092;28;19925;-78
2022/01/16 06:59:21;;;;;;;;;;;3.40;99.90;;;;;;5067013;28;19924;-78
2022/01/16 07:01:47;;;;;;;;;;;3.40;99.90;;;;;;5067472;28;19928;-78
2022/01/16 07:04:12;;;;;;;;;;;3.40;99.90;;;;;;5067002;28;19971;-78
2022/01/16 07:06:38;;;;;;;;;;;3.50;99.90;;;;;;5067319;28;20646;-78
2022/01/16 07:09:03;;;;;;;;;;;3.50;99.90;;;;;;5054143;28;19930;-78
2022/01/16 07:11:29;;;;;;;;;;;3.50;99.90;;;;;;5071214;28;19963;-78
2022/01/16 07:13:54;;;;;;;;;;;3.50;99.90;;;;;;5054111;28;19920;-78
2022/01/16 07:16:21;;;;;;;;;;;3.50;99.90;;;;;;5070922;28;19920;-78
2022/01/16 07:18:47;;;;;;;;;;;3.60;99.90;;;;;;5071079;28;20373;-78
2022/01/16 07:21:13;;;;;;;;;;;3.60;99.90;;;;;;5054482;28;19967;-78
2022/01/16 07:23:42;;;;;;;;;;;3.60;99.90;;;;;;5054154;28;20294;-78
2022/01/16 07:26:07;;;;;;;;;;;3.60;99.90;;;;;;5070456;28;20023;-78
2022/01/16 07:28:33;;;;;;;;;;;3.60;99.90;;;;;;5054030;28;20003;-78
2022/01/16 07:30:58;;;;;;;;;;;3.60;99.90;;;;;;5070693;28;20351;-78
2022/01/16 07:33:24;;;;;;;;;;;3.70;99.90;;;;;;5070148;28;20362;-78
2022/01/16 07:35:49;;;;;;;;;;;3.70;99.90;;;;;;5071050;28;20420;-78
2022/01/16 07:38:15;;;;;;;;;;;3.70;99.90;;;;;;5071051;28;19978;-78
2022/01/16 07:40:40;;;;;;;;;;;3.70;99.90;;;;;;5053995;28;19929;-78
2022/01/16 07:43:06;;;;;;;;;;;3.70;99.90;;;;;;5054127;28;19927;-78
2022/01/16 07:45:32;;;;;;;;;;;3.70;99.90;;;;;;5054627;28;20515;-78
2022/01/16 07:47:58;;;;;;;;;;;3.80;99.90;;;;;;5070972;28;19920;-78
2022/01/16 07:50:23;;;;;;;;;;;3.80;99.90;;;;;;5054747;28;20306;-78
2022/01/16 07:52:49;;;;;;;;;;;3.80;99.90;;;;;;5071033;28;19924;-78
2022/01/16 07:55:15;;;;;;;;;;;3.80;99.90;;;;;;5071533;28;19925;-78
2022/01/16 07:57:41;;;;;;;;;;;3.80;99.90;;;;;;5071331;28;19928;-77
2022/01/16 08:00:06;;;;;;;;;;;3.90;99.90;;;;;;5069849;28;19924;-77
2022/01/16 08:02:32;;;;;;;;;;;3.90;99.90;;;;;;5070615;28;19925;-78
2022/01/16 08:04:57;;;;;;;;;;;3.90;99.90;;;;;;5071142;28;19925;-77
2022/01/16 08:07:23;;;;;;;;;;;3.90;99.90;;;;;;5069868;28;19920;-78
2022/01/16 08:09:48;;;;;;;;;;;4.00;99.90;;;;;;5070399;28;20309;-78
2022/01/16 08:12:14;;;;;;;;;;;4.00;99.90;;;;;;5070353;28;19920;-78
2022/01/16 08:14:40;;;;;;;;;;;4.00;99.90;;;;;;5069759;28;19927;-78
2022/01/16 08:17:05;;;;;;;;;;;4.10;99.90;;;;;;5069972;28;20375;-77
2022/01/16 08:19:31;;;;;;;;;;;4.10;99.90;;;;;;5069307;28;19920;-78
2022/01/16 08:21:57;;;;;;;;;;;4.20;99.90;;;;;;5069834;28;19946;-78
2022/01/16 08:24:23;;;;;;;;;;;4.20;99.90;;;;;;5069515;28;19920;-78
2022/01/16 08:26:49;;;;;;;;;;;4.20;99.90;;;;;;5069303;28;19994;-78
2022/01/16 08:29:14;;;;;;;;;;;4.30;99.90;;;;;;5069851;28;20359;-78
2022/01/16 08:31:40;;;;;;;;;;;4.30;99.90;;;;;;5052758;28;19977;-77
2022/01/16 08:34:06;;;;;;;;;;;4.30;99.90;;;;;;5052994;28;19920;-78
2022/01/16 08:36:31;;;;;;;;;;;4.30;99.90;;;;;;5070518;28;19950;-77
2022/01/16 08:38:57;;;;;;;;;;;4.30;99.90;;;;;;5070571;28;19920;-78
2022/01/16 08:41:23;;;;;;;;;;;4.30;99.90;;;;;;5069261;28;19928;-78
2022/01/16 08:43:48;;;;;;;;;;;4.40;99.90;;;;;;5065364;28;19931;-78
2022/01/16 08:46:14;;;;;;;;;;;4.30;99.90;;;;;;5055520;28;20377;-78
2022/01/16 08:48:40;;;;;;;;;;;4.40;99.90;;;;;;5064123;28;20023;-76
2022/01/16 08:51:06;;;;;;;;;;;4.40;99.90;;;;;;5035864;28;19932;-76
2022/01/16 08:53:32;;;;;;;;;;;4.50;99.90;;;;;;5066651;28;19943;-77
2022/01/16 08:55:58;;;;;;;;;;;4.50;99.90;;;;;;5067866;28;19920;-77
2022/01/16 08:58:23;;;;;;;;;;;4.50;99.90;;;;;;5067483;28;19925;-76
2022/01/16 09:00:50;;;;;;;;;;;4.60;99.90;;;;;;5051148;28;19920;-77
2022/01/16 09:03:16;;;;;;;;;;;4.70;99.90;;;;;;5067958;28;20007;-77
2022/01/16 09:05:42;;;;;;;;;;;4.80;99.90;;;;;;5067606;28;19960;-77
2022/01/16 09:08:07;;;;;;;;;;;4.80;99.90;;;;;;5068092;28;19979;-77
2022/01/16 09:10:33;;;;;;;;;;;4.90;99.90;;;;;;5066769;28;20369;-77
2022/01/16 09:12:58;;;;;;;;;;;4.90;99.90;;;;;;5056051;28;20286;-77
2022/01/16 09:15:24;;;;;;;;;;;5.00;99.90;;;;;;5067844;28;19979;-76
2022/01/16 09:17:49;;;;;;;;;;;5.00;99.90;;;;;;5067734;28;19924;-77
2022/01/16 09:20:15;;;;;;;;;;;5.10;99.90;;;;;;5067239;28;19925;-77
2022/01/16 09:22:43;;;;;;;;;;;5.10;99.90;;;;;;5083826;28;19947;-77
2022/01/16 09:25:10;;;;;;;;;;;5.10;99.90;;;;;;5066810;28;19920;-77
2022/01/16 09:27:36;;;;;;;;;;;5.10;99.90;;;;;;5064505;28;19925;-77
2022/01/16 09:30:01;;;;;;;;;;;5.10;99.90;;;;;;5064563;28;19928;-77
2022/01/16 09:32:27;;;;;;;;;;;5.20;99.90;;;;;;5066821;28;19927;-77
2022/01/16 09:34:53;;;;;;;;;;;5.20;99.90;;;;;;5067294;28;19990;-77
2022/01/16 09:37:18;;;;;;;;;;;5.20;99.90;;;;;;5066460;28;19924;-77
2022/01/16 09:39:44;;;;;;;;;;;5.30;99.90;;;;;;5066359;28;19924;-76
2022/01/16 09:42:09;;;;;;;;;;;5.30;99.90;;;;;;5063113;28;19940;-77
2022/01/16 09:44:39;;;;;;;;;;;5.30;99.90;;;;;;5067855;28;19920;-77
2022/01/16 09:47:04;;;;;;;;;;;5.30;99.90;;;;;;5068180;28;19927;-77
2022/01/16 09:49:30;;;;;;;;;;;5.40;99.90;;;;;;5051804;28;19925;-77
2022/01/16 09:51:55;;;;;;;;;;;5.40;99.90;;;;;;5067249;28;20412;-74
2022/01/16 09:54:21;;;;;;;;;;;5.40;99.90;;;;;;5070097;28;19989;-74
2022/01/16 09:56:47;;;;;;;;;;;5.40;99.90;;;;;;5064451;28;19972;-75
2022/01/16 09:59:13;;;;;;;;;;;5.50;99.90;;;;;;5067253;28;19990;-75
2022/01/16 10:01:39;;;;;;;;;;;5.50;99.90;;;;;;5063126;28;19972;-75
2022/01/16 10:04:25;;;;;;;;;;;5.50;99.90;;;;;;5067375;28;19964;-75
2022/01/16 10:06:57;;;;;;;;;;;5.60;99.90;;;;;;5068622;28;19943;-75
2022/01/16 10:09:23;;;;;;;;;;;5.60;99.90;;;;;;5068260;28;19920;-75
2022/01/16 10:12:00;;;;;;;;;;;5.60;99.90;;;;;;5068959;28;19966;-75
2022/01/16 10:14:30;;;;;;;;;;;5.60;99.90;;;;;;5051971;28;20362;-76
2022/01/16 10:16:55;;;;;;;;;;;5.70;99.90;;;;;;5068770;28;19937;-76
2022/01/16 10:19:22;;;;;;;;;;;5.70;99.90;;;;;;5068085;28;19970;-75
2022/01/16 10:21:48;;;;;;;;;;;5.70;99.90;;;;;;5067785;28;20009;-76
2022/01/16 10:24:18;;;;;;;;;;;5.70;99.90;;;;;;5051960;28;19920;-75
2022/01/16 10:26:44;;;;;;;;;;;5.80;99.90;;;;;;5051046;28;20298;-76
2022/01/16 10:29:14;;;;;;;;;;;5.80;99.90;;;;;;5051357;28;19924;-76
2022/01/16 10:31:40;;;;;;;;;;;5.90;99.90;;;;;;5068381;28;19975;-75
2022/01/16 10:34:21;;;;;;;;;;;5.90;99.90;;;;;;5068422;28;19971;-76
2022/01/16 10:36:46;;;;;;;;;;;5.90;99.90;;;;;;5068128;28;19930;-75
2022/01/16 10:39:12;;;;;;;;;;;5.90;99.90;;;;;;5068296;28;20970;-75
2022/01/16 10:41:38;;;;;;;;;;;6.00;99.90;;;;;;5069304;28;20446;-76
2022/01/16 10:44:06;;;;;;;;;;;6.00;99.90;;;;;;5072098;28;19928;-76
2022/01/16 10:46:32;;;;;;;;;;;6.00;99.90;;;;;;5055412;28;19921;-75
2022/01/16 10:49:11;;;;;;;;;;;6.00;99.90;;;;;;5071746;28;20306;-75
2022/01/16 10:51:37;;;;;;;;;;;6.00;99.90;;;;;;5072127;28;19924;-75
2022/01/16 10:54:22;;;;;;;;;;;6.00;99.90;;;;;;5072799;28;20003;-75
2022/01/16 10:56:47;;;;;;;;;;;6.00;99.90;;;;;;5072392;28;19947;-75
2022/01/16 10:59:22;;;;;;;;;;;6.00;99.90;;;;;;5072336;28;20374;-75
2022/01/16 11:02:07;;;;;;;;;;;6.00;99.90;;;;;;5071902;28;19924;-75
2022/01/16 11:04:33;;;;;;;;;;;6.00;99.90;;;;;;5070810;28;19924;-76
2022/01/16 11:07:02;;;;;;;;;;;6.00;99.90;;;;;;5072476;28;20374;-76
2022/01/16 11:09:28;;;;;;;;;;;6.00;99.90;;;;;;5070897;28;19920;-74
2022/01/16 11:11:59;;;;;;;;;;;6.00;99.90;;;;;;5072423;28;19927;-75
2022/01/16 11:14:28;;;;;;;;;;;6.10;99.90;;;;;;5070186;28;20370;-76
2022/01/16 11:16:57;;;;;;;;;;;6.10;99.90;;;;;;5071484;28;19924;-76
2022/01/16 11:19:24;;;;;;;;;;;6.10;99.90;;;;;;5071740;28;20456;-76
2022/01/16 11:21:53;;;;;;;;;;;6.20;99.90;;;;;;5071888;28;19928;-76
2022/01/16 11:26:51;;;;;;;;;;;6.20;99.90;;;;;;5071307;28;19920;-76
2022/01/16 11:29:17;;;;;;;;;;;6.30;99.90;;;;;;5055067;28;19920;-77
2022/01/16 11:31:43;;;;;;;;;;;6.30;99.90;;;;;;5071781;28;20015;-76
2022/01/16 11:34:09;;;;;;;;;;;6.30;99.90;;;;;;5071572;28;19928;-76
2022/01/16 11:36:35;;;;;;;;;;;6.30;99.90;;;;;;5072765;28;20302;-76
2022/01/16 11:39:04;;;;;;;;;;;6.30;99.90;;;;;;5071591;28;19921;-77
2022/01/16 11:41:33;;;;;;;;;;;6.30;99.90;;;;;;5071201;28;19924;-77
2022/01/16 11:44:00;;;;;;;;;;;6.40;99.90;;;;;;5054702;28;19920;-77
2022/01/16 11:46:26;;;;;;;;;;;6.40;99.90;;;;;;5054739;28;20375;-77
2022/01/16 11:49:03;;;;;;;;;;;6.50;99.90;;;;;;5071187;28;19946;-77
2022/01/16 11:51:32;;;;;;;;;;;6.50;99.90;;;;;;5071208;28;19920;-77
2022/01/16 11:53:57;;;;;;;;;;;6.50;99.90;;;;;;5070406;28;19981;-77
2022/01/16 11:56:41;;;;;;;;;;;6.50;99.90;;;;;;5071108;28;19920;-77
2022/01/16 11:59:10;;;;;;;;;;;6.50;99.90;;;;;;5054394;28;19920;-77
2022/01/16 12:01:46;;;;;;;;;;;6.60;99.90;;;;;;5071110;28;19924;-77
2022/01/16 12:04:30;;;;;;;;;;;6.60;99.90;;;;;;5070848;28;19998;-77
2022/01/16 12:06:56;;;;;;;;;;;6.60;99.90;;;;;;5054346;28;20255;-77
2022/01/16 12:09:34;;;;;;;;;;;6.60;99.90;;;;;;5070671;28;19935;-77
2022/01/16 12:11:59;;;;;;;;;;;6.70;99.90;;;;;;5070856;28;19927;-78
2022/01/16 12:14:44;;;;;;;;;;;6.70;99.90;;;;;;5053800;28;19920;-77
2022/01/16 12:17:28;;;;;;;;;;;6.80;99.90;;;;;;5054014;28;20991;-77
2022/01/16 12:19:54;;;;;;;;;;;6.80;99.90;;;;;;5070601;28;19975;-77
2022/01/16 12:22:42;;;;;;;;;;;6.80;99.90;;;;;;5053985;28;20022;-77
2022/01/16 12:25:27;;;;;;;;;;;6.80;99.90;;;;;;5070242;28;19987;-77
2022/01/16 12:27:55;;;;;;;;;;;6.90;99.90;;;;;;5054342;28;20015;-77
2022/01/16 12:30:23;;;;;;;;;;;6.90;99.90;;;;;;5071148;28;19920;-77
2022/01/16 12:32:50;;;;;;;;;;;6.90;99.90;;;;;;5070232;28;20435;-77
2022/01/16 12:35:36;;;;;;;;;;;6.90;99.90;;;;;;5070741;28;19950;-77
2022/01/16 12:38:06;;;;;;;;;;;6.90;99.90;;;;;;5070477;28;20299;-77
2022/01/16 12:40:31;;;;;;;;;;;6.90;99.90;;;;;;5053733;28;19925;-76
2022/01/16 12:42:57;;;;;;;;;;;6.90;99.90;;;;;;5069835;28;19981;-77
2022/01/16 12:45:23;;;;;;;;;;;6.90;99.90;;;;;;5069764;28;19920;-77
2022/01/16 12:47:48;;;;;;;;;;;6.90;99.90;;;;;;5053992;28;19921;-77
2022/01/16 12:50:14;;;;;;;;;;;6.90;99.90;;;;;;5070475;28;19966;-77
2022/01/16 12:52:46;;;;;;;;;;;6.90;99.90;;;;;;5052911;28;20394;-76
2022/01/16 12:55:12;;;;;;;;;;;6.90;99.90;;;;;;5070324;28;19920;-77
2022/01/16 12:57:37;;;;;;;;;;;6.90;99.90;;;;;;5053173;28;20007;-77
2022/01/16 13:00:10;;;;;;;;;;;6.90;99.90;;;;;;5070228;28;19956;-77
2022/01/16 13:02:38;;;;;;;;;;;6.90;99.90;;;;;;5069911;28;19999;-77
2022/01/16 13:05:05;;;;;;;;;;;7.00;99.90;;;;;;5068472;28;19927;-77
2022/01/16 13:07:31;;;;;;;;;;;6.90;99.90;;;;;;5069470;28;19928;-77
2022/01/16 13:09:57;;;;;;;;;;;6.90;99.90;;;;;;5070333;28;19974;-77
2022/01/16 13:12:22;;;;;;;;;;;7.00;99.90;;;;;;5053105;28;20450;-77
2022/01/16 13:14:48;;;;;;;;;;;6.90;99.90;;;;;;5052683;28;19931;-77
2022/01/16 13:17:14;;;;;;;;;;;6.90;99.90;;;;;;5052621;28;19974;-77
2022/01/16 13:22:12;;;;;;;;;;;6.90;99.90;;;;;;5069770;28;20263;-77
2022/01/16 13:24:51;;;;;;;;;;;6.90;99.90;;;;;;5052854;28;19920;-77
2022/01/16 13:27:23;;;;;;;;;;;6.90;99.90;;;;;;5052844;28;19947;-77
2022/01/16 13:29:57;;;;;;;;;;;6.90;99.90;;;;;;5068954;28;20007;-77
2022/01/16 13:32:31;;;;;;;;;;;6.90;99.90;;;;;;5069275;28;19920;-77
2022/01/16 13:34:57;;;;;;;;;;;6.90;99.90;;;;;;5069560;28;20286;-77
2022/01/16 13:37:26;;;;;;;;;;;6.90;99.90;;;;;;5052422;28;20366;-77
2022/01/16 13:40:08;;;;;;;;;;;6.90;99.90;;;;;;5068518;28;19928;-76
2022/01/16 13:42:43;;;;;;;;;;;6.90;99.90;;;;;;5048208;28;19964;-76
2022/01/16 13:45:22;;;;;;;;;;;6.90;99.90;;;;;;5068424;28;19920;-76
2022/01/16 13:47:54;;;;;;;;;;;6.90;99.90;;;;;;5065711;28;20367;-76
2022/01/16 13:50:21;;;;;;;;;;;6.90;99.90;;;;;;5052013;28;20386;-76
2022/01/16 13:52:51;;;;;;;;;;;7.00;99.90;;;;;;5052349;28;19978;-76
2022/01/16 13:55:17;;;;;;;;;;;7.00;99.90;;;;;;5051920;28;19921;-77
2022/01/16 13:57:43;;;;;;;;;;;7.00;99.90;;;;;;5067914;28;19925;-77
2022/01/16 14:00:09;;;;;;;;;;;7.00;99.90;;;;;;5068448;28;19924;-77
2022/01/16 14:02:35;;;;;;;;;;;7.00;99.90;;;;;;5068207;28;19927;-77
2022/01/16 14:05:02;;;;;;;;;;;7.00;99.90;;;;;;5068452;28;20397;-76
2022/01/16 14:07:28;;;;;;;;;;;7.00;99.90;;;;;;5068340;28;19924;-77
2022/01/16 14:09:55;;;;;;;;;;;7.00;99.90;;;;;;5068563;28;19963;-77
2022/01/16 14:12:21;;;;;;;;;;;7.00;99.90;;;;;;5068684;28;19920;-77
2022/01/16 14:14:48;;;;;;;;;;;7.00;99.90;;;;;;5068584;28;20078;-77
2022/01/16 14:17:39;;;;;;;;;;;6.90;99.90;;;;;;5068605;28;20286;-77
2022/01/16 14:20:24;;;;;;;;;;;6.90;99.90;;;;;;5068388;28;19927;-77
2022/01/16 14:22:48;;;;;;;;;;;6.90;99.90;;;;;;5068426;28;19924;-76
2022/01/16 14:25:14;;;;;;;;;;;6.90;99.90;;;;;;5067508;28;20011;-77
2022/01/16 14:27:41;;;;;;;;;;;6.90;99.90;;;;;;5068761;28;20158;-78
2022/01/16 14:30:09;;;;;;;;;;;6.90;99.90;;;;;;5069706;28;20014;-77
2022/01/16 14:32:35;;;;;;;;;;;6.90;99.90;;;;;;5069496;28;19938;-77
2022/01/16 14:35:01;;;;;;;;;;;6.90;99.90;;;;;;5051957;28;20434;-77
2022/01/16 14:37:28;;;;;;;;;;;6.90;99.90;;;;;;5051931;28;19925;-78
2022/01/16 14:39:53;;;;;;;;;;;6.90;99.90;;;;;;5067932;28;19924;-77
2022/01/16 14:42:20;;;;;;;;;;;6.90;99.90;;;;;;5068734;28;19970;-77
2022/01/16 14:44:47;;;;;;;;;;;7.00;99.90;;;;;;5068748;28;20325;-78
2022/01/16 14:47:14;;;;;;;;;;;7.00;99.90;;;;;;5068329;28;20237;-76
2022/01/16 14:49:40;;;;;;;;;;;7.00;99.90;;;;;;5068120;28;20036;-78
2022/01/16 14:52:05;;;;;;;;;;;7.00;99.90;;;;;;5068973;28;20333;-77
2022/01/16 14:54:31;;;;;;;;;;;6.90;99.90;;;;;;5068250;28;19928;-77
2022/01/16 14:56:56;;;;;;;;;;;7.00;99.90;;;;;;5068612;28;19925;-78
2022/01/16 14:59:22;;;;;;;;;;;7.00;99.90;;;;;;5051434;28;19924;-78
2022/01/16 15:01:48;;;;;;;;;;;7.00;99.90;;;;;;5068462;28;19931;-78
2022/01/16 15:04:13;;;;;;;;;;;7.00;99.90;;;;;;5068618;28;20015;-78
2022/01/16 15:06:39;;;;;;;;;;;6.90;99.90;;;;;;5067440;28;19928;-77
2022/01/16 15:09:06;;;;;;;;;;;6.90;99.90;;;;;;5068108;28;19925;-77
2022/01/16 15:11:32;;;;;;;;;;;6.80;99.90;;;;;;5067643;28;19928;-78
2022/01/16 15:13:58;;;;;;;;;;;6.80;99.90;;;;;;5067874;28;19925;-77